createdAt,value
2023-07-12T00:01:24.487Z,98843.78
2023-07-12T00:06:34.465Z,98843.59
2023-07-12T00:11:37.913Z,98847.91
2023-07-12T00:16:42.237Z,98847.81
2023-07-12T00:21:46.700Z,98847.19
2023-07-12T00:26:50.238Z,98865.22
2023-07-12T00:31:53.300Z,98857.78
2023-07-12T00:36:57.998Z,98868.09
2023-07-12T00:42:10.361Z,98855.13
2023-07-12T00:47:15.792Z,98870.97
2023-07-12T00:52:22.428Z,98889.69
2023-07-12T00:57:27.473Z,98913.09
2023-07-12T01:07:35.626Z,98882.75
2023-07-12T01:12:39.705Z,98886.72
2023-07-12T01:17:42.874Z,98903.97
2023-07-12T01:22:47.322Z,98916.47
2023-07-12T01:27:50.412Z,98911.31
2023-07-12T01:32:54.724Z,98913.00
2023-07-12T01:37:59.335Z,98913.47
2023-07-12T01:43:02.394Z,98904.59
2023-07-12T01:48:06.249Z,98902.53
2023-07-12T01:53:11.036Z,98891.88
2023-07-12T01:58:14.556Z,98877.25
2023-07-12T02:03:17.802Z,98868.13
2023-07-12T02:08:22.992Z,98869.81
2023-07-12T02:13:26.094Z,98857.94
2023-07-12T02:18:29.311Z,98861.03
2023-07-12T02:23:34.333Z,98857.19
2023-07-12T02:28:37.938Z,98850.84
2023-07-12T02:33:41.108Z,98846.78
2023-07-12T02:38:47.738Z,98848.91
2023-07-12T02:43:51.050Z,98861.75
2023-07-12T02:48:54.104Z,98871.25
2023-07-12T02:53:58.519Z,98877.94
2023-07-12T02:59:01.664Z,98867.63
2023-07-12T03:04:05.243Z,98883.59
2023-07-12T03:09:09.674Z,98886.56
2023-07-12T03:14:12.777Z,98880.97
2023-07-12T03:19:19.843Z,98861.13
2023-07-12T03:24:24.234Z,98856.47
2023-07-12T03:29:27.455Z,98873.50
2023-07-12T03:34:32.338Z,98866.19
2023-07-12T03:39:36.777Z,98863.91
2023-07-12T03:44:39.842Z,98876.53
2023-07-12T03:49:42.999Z,98875.69
2023-07-12T03:54:47.987Z,98879.16
2023-07-12T03:59:51.583Z,98878.53
2023-07-12T04:04:54.978Z,98887.22
2023-07-12T04:09:59.737Z,98896.19
2023-07-12T04:15:02.892Z,98900.75
2023-07-12T04:20:08.274Z,98913.34
2023-07-12T04:25:12.803Z,98909.38
2023-07-12T04:30:17.921Z,98913.94
2023-07-12T04:35:21.545Z,98915.25
2023-07-12T04:40:26.079Z,98900.28
2023-07-12T04:45:29.136Z,98908.19
2023-07-12T04:50:34.427Z,98922.22
2023-07-12T04:55:38.863Z,98951.66
2023-07-12T05:00:44.783Z,98958.97
2023-07-12T05:05:47.912Z,98978.91
2023-07-12T05:10:52.507Z,99006.66
2023-07-12T05:15:56.006Z,99020.47
2023-07-12T05:20:59.719Z,99018.56
2023-07-12T05:26:04.624Z,99041.72
2023-07-12T05:31:08.773Z,99012.06
2023-07-12T05:36:12.849Z,99029.47
2023-07-12T05:41:17.300Z,99042.91
2023-07-12T05:46:20.396Z,99039.75
2023-07-12T05:51:23.671Z,99044.69
2023-07-12T05:56:28.961Z,99034.94
2023-07-12T06:01:32.253Z,99035.69
2023-07-12T06:06:35.342Z,99027.19
2023-07-12T06:11:39.734Z,99032.00
2023-07-12T06:16:45.306Z,99022.84
2023-07-12T06:21:48.721Z,99016.56
2023-07-12T06:26:53.134Z,99015.50
2023-07-12T06:31:56.379Z,99035.34
2023-07-12T06:36:59.449Z,99052.91
2023-07-12T06:42:04.105Z,99053.78
2023-07-12T06:47:07.335Z,99062.59
2023-07-12T06:52:11.792Z,99074.28
2023-07-12T06:57:16.197Z,99085.09
2023-07-12T07:02:19.853Z,99083.16
2023-07-12T07:07:22.948Z,99077.63
2023-07-12T07:12:27.493Z,99085.53
2023-07-12T07:17:30.617Z,99089.94
2023-07-12T07:22:34.193Z,99093.78
2023-07-12T07:27:38.651Z,99089.91
2023-07-12T07:32:41.919Z,99090.63
2023-07-12T07:37:45.046Z,99091.56
2023-07-12T07:42:49.908Z,99096.19
2023-07-12T07:47:53.232Z,99096.50
2023-07-12T07:52:56.404Z,99111.91
2023-07-12T07:58:00.937Z,99103.66
2023-07-12T08:03:04.179Z,99097.81
2023-07-12T08:08:07.733Z,99100.91
2023-07-12T08:13:13.668Z,99102.53
2023-07-12T08:18:17.379Z,99098.69
2023-07-12T08:23:20.846Z,99096.75
2023-07-12T08:28:25.299Z,99110.34
2023-07-12T08:33:28.384Z,99094.94
2023-07-12T08:38:33.049Z,99105.31
2023-07-12T08:43:38.123Z,99111.78
2023-07-12T08:48:41.341Z,99105.66
2023-07-12T08:53:46.186Z,99105.41
2023-07-12T08:58:52.705Z,99113.44
2023-07-12T09:03:55.811Z,99129.34
2023-07-12T09:08:59.902Z,99117.91
2023-07-12T09:14:04.686Z,99109.00
2023-07-12T09:19:15.398Z,99114.47
2023-07-12T09:24:23.233Z,99110.50
2023-07-12T09:29:27.637Z,99116.22
2023-07-12T09:34:37.969Z,99115.63
2023-07-12T09:39:41.073Z,99115.75
2023-07-12T09:44:48.432Z,99107.97
2023-07-12T09:49:58.075Z,99112.72
2023-07-12T09:55:11.692Z,99106.75
2023-07-12T10:00:23.452Z,99104.41
2023-07-12T10:05:27.199Z,99105.53
2023-07-12T10:10:37.468Z,99117.50
2023-07-12T10:15:43.818Z,99100.94
2023-07-12T10:20:49.075Z,99102.28
2023-07-12T10:25:58.588Z,99104.63
2023-07-12T10:31:11.588Z,99108.88
2023-07-12T10:36:18.374Z,99100.41
2023-07-12T10:41:27.704Z,99103.16
2023-07-12T10:46:38.686Z,99102.25
2023-07-12T10:51:45.874Z,99094.56
2023-07-12T10:56:54.319Z,99102.00
2023-07-12T11:02:11.109Z,99107.88
2023-07-12T11:07:31.916Z,99092.53
2023-07-12T11:12:40.888Z,99095.84
2023-07-12T11:17:59.920Z,99091.59
2023-07-12T11:23:28.717Z,99082.25
2023-07-12T11:28:44.612Z,99073.03
2023-07-12T11:33:52.156Z,99069.06
2023-07-12T11:38:56.235Z,99078.72
2023-07-12T11:44:03.492Z,99080.94
2023-07-12T11:49:16.009Z,99066.94
2023-07-12T11:54:21.009Z,99081.81
2023-07-12T11:59:26.397Z,99081.19
2023-07-12T12:04:33.329Z,99089.72
2023-07-12T12:09:39.105Z,99075.22
2023-07-12T12:14:43.741Z,99074.09
2023-07-12T12:19:51.358Z,99080.31
2023-07-12T12:24:57.887Z,99079.75
2023-07-12T12:30:10.295Z,99072.13
2023-07-12T12:35:15.265Z,99064.38
2023-07-12T12:40:21.475Z,99068.59
2023-07-12T12:45:28.714Z,99062.94
2023-07-12T12:58:05.234Z,99050.09
2023-07-12T13:06:18.918Z,99067.41
2023-07-12T13:21:37.457Z,99059.75
2023-07-12T13:26:42.922Z,99052.22
2023-07-12T13:31:46.381Z,99050.16
2023-07-12T13:36:52.969Z,99048.16
2023-07-12T13:47:02.069Z,99040.31
2023-07-12T13:52:07.285Z,99061.75
2023-07-12T14:12:36.802Z,99042.94
2023-07-12T14:17:39.910Z,99049.19
2023-07-12T14:22:45.584Z,99055.19
2023-07-12T14:27:49.676Z,99038.81
2023-07-12T14:32:53.290Z,99042.06
2023-07-12T14:37:59.622Z,99030.78
2023-07-12T14:43:03.841Z,99037.44
2023-07-12T14:48:10.591Z,99052.81
2023-07-12T14:53:22.140Z,99045.59
2023-07-12T14:58:25.270Z,99035.97
2023-07-12T15:03:30.098Z,99043.91
2023-07-12T15:08:34.571Z,99038.09
2023-07-12T15:13:38.014Z,99042.22
2023-07-12T15:18:41.126Z,99038.38
2023-07-12T15:23:46.624Z,99031.34
2023-07-12T15:28:49.714Z,99037.31
2023-07-12T15:33:53.787Z,99048.56
2023-07-12T15:38:58.901Z,99043.94
2023-07-12T15:44:02.088Z,99041.25
2023-07-12T15:49:06.977Z,99040.22
2023-07-12T15:54:17.069Z,99048.19
2023-07-12T15:59:21.537Z,99041.84
2023-07-12T16:04:25.031Z,99049.78
2023-07-12T16:09:29.409Z,99041.47
2023-07-12T16:14:35.406Z,99042.56
2023-07-12T16:19:38.577Z,99051.97
2023-07-12T16:24:43.021Z,99054.69
2023-07-12T16:29:46.413Z,99061.38
2023-07-12T16:34:49.532Z,99061.09
2023-07-12T16:39:56.034Z,99062.03
2023-07-12T16:45:00.361Z,99065.28
2023-07-12T16:50:03.477Z,99063.78
2023-07-12T16:55:20.921Z,99074.53
2023-07-12T17:00:24.001Z,99075.81
2023-07-12T17:05:27.361Z,99072.13
2023-07-12T17:10:32.526Z,99086.47
2023-07-12T17:15:36.006Z,99077.44
2023-07-12T17:20:39.920Z,99075.34
2023-07-12T17:25:44.836Z,99082.19
2023-07-12T17:30:49.251Z,99071.06
2023-07-12T17:35:53.133Z,99081.13
2023-07-12T17:40:58.126Z,99077.78
2023-07-12T17:46:01.289Z,99077.75
2023-07-12T17:51:13.103Z,99081.66
2023-07-12T17:56:18.285Z,99073.69
2023-07-12T18:01:23.608Z,99076.97
2023-07-12T18:06:28.998Z,99083.00
2023-07-12T18:11:36.397Z,99080.00
2023-07-12T18:16:39.677Z,99087.13
2023-07-12T18:21:44.696Z,99083.03
2023-07-12T18:26:49.414Z,99082.78
2023-07-12T18:31:52.983Z,99080.28
2023-07-12T18:36:56.225Z,99083.47
2023-07-12T18:42:00.698Z,99077.50
2023-07-12T18:47:04.568Z,99099.47
2023-07-12T18:52:15.196Z,99084.47
2023-07-12T18:57:21.059Z,99083.41
2023-07-12T19:02:25.796Z,99087.03
2023-07-12T19:07:31.342Z,99076.44
2023-07-12T19:12:35.752Z,99084.34
2023-07-12T19:17:38.899Z,99083.09
2023-07-12T19:22:42.357Z,99082.56
2023-07-12T19:27:47.164Z,99104.44
2023-07-12T19:32:50.645Z,99111.06
2023-07-12T19:37:54.935Z,99130.94
2023-07-12T19:42:59.509Z,99134.84
2023-07-12T19:48:03.579Z,99137.84
2023-07-12T19:53:24.375Z,99143.72
2023-07-12T19:58:30.925Z,99160.09
2023-07-12T20:03:34.033Z,99160.78
2023-07-12T20:08:37.187Z,99167.16
2023-07-12T20:13:42.207Z,99170.50
2023-07-12T20:18:45.372Z,99168.47
2023-07-12T20:23:49.209Z,99183.59
2023-07-12T20:28:53.788Z,99184.63
2023-07-12T20:33:56.870Z,99171.09
2023-07-12T20:39:00.238Z,99182.34
2023-07-12T20:44:04.774Z,99173.63
2023-07-12T20:49:08.742Z,99175.28
2023-07-12T20:54:12.468Z,99177.34
2023-07-12T20:59:17.151Z,99179.31
2023-07-12T21:04:20.361Z,99176.41
2023-07-12T21:09:23.986Z,99171.97
2023-07-12T21:14:28.573Z,99181.44
2023-07-12T21:19:31.845Z,99187.22
2023-07-12T21:24:35.105Z,99189.25
2023-07-12T21:29:39.743Z,99200.88
2023-07-12T21:34:43.128Z,99204.34
2023-07-12T21:39:46.660Z,99199.44
2023-07-12T21:44:51.288Z,99219.41
2023-07-12T21:49:54.579Z,99226.63
2023-07-12T21:54:58.726Z,99225.41
2023-07-12T22:00:03.560Z,99222.03
2023-07-12T22:05:07.207Z,99232.25
2023-07-12T22:10:14.179Z,99235.72
2023-07-12T22:15:19.283Z,99234.84
2023-07-12T22:20:23.073Z,99242.88
2023-07-12T22:25:27.521Z,99254.16
2023-07-12T22:30:34.722Z,99261.97
2023-07-12T22:35:37.999Z,99273.19
2023-07-12T22:40:41.231Z,99288.66
2023-07-12T22:45:46.135Z,99305.56
2023-07-12T22:50:49.539Z,99319.72
2023-07-12T22:56:00.670Z,99316.97
2023-07-12T23:01:05.330Z,99327.91
2023-07-12T23:06:09.075Z,99326.41
2023-07-12T23:11:14.806Z,99342.69
2023-07-12T23:16:21.765Z,99353.00
2023-07-12T23:21:25.293Z,99360.84
2023-07-12T23:26:28.425Z,99368.00
2023-07-12T23:31:34.787Z,99365.91
2023-07-12T23:36:40.589Z,99371.38
2023-07-12T23:41:46.792Z,99372.63
2023-07-12T23:46:51.314Z,99369.69
2023-07-12T23:51:56.718Z,99376.72
2023-07-12T23:57:00.381Z,99372.50
